createdAt,value
2023-03-22T00:03:47.197Z,178.50
2023-03-22T00:07:47.294Z,180.00
2023-03-22T00:11:47.419Z,177.89
2023-03-22T00:15:47.571Z,178.33
2023-03-22T00:19:47.702Z,178.35
2023-03-22T00:23:47.803Z,178.67
2023-03-22T00:27:47.942Z,177.74
2023-03-22T00:31:48.184Z,177.72
2023-03-22T00:35:48.238Z,177.16
2023-03-22T00:39:48.321Z,178.91
2023-03-22T00:43:48.485Z,176.88
2023-03-22T00:47:48.609Z,176.86
2023-03-22T00:51:48.756Z,177.74
2023-03-22T00:55:48.908Z,177.63
2023-03-22T00:59:49.029Z,177.49
2023-03-22T01:03:49.165Z,178.29
2023-03-22T01:07:49.280Z,177.02
2023-03-22T01:11:49.426Z,177.85
2023-03-22T01:15:49.521Z,176.48
2023-03-22T01:19:49.638Z,177.44
2023-03-22T01:23:49.803Z,178.26
2023-03-22T01:27:49.924Z,177.67
2023-03-22T01:31:50.060Z,177.17
2023-03-22T01:35:50.242Z,177.79
2023-03-22T01:39:50.336Z,177.19
2023-03-22T01:43:50.458Z,178.85
2023-03-22T01:47:50.624Z,178.27
2023-03-22T01:51:50.738Z,176.04
2023-03-22T01:55:50.872Z,177.77
2023-03-22T01:59:50.973Z,178.07
2023-03-22T02:03:51.130Z,177.24
2023-03-22T02:07:51.269Z,176.53
2023-03-22T02:11:51.363Z,177.73
2023-03-22T02:15:51.590Z,176.92
2023-03-22T02:19:51.652Z,177.30
2023-03-22T02:23:51.777Z,177.39
2023-03-22T02:27:51.914Z,177.72
2023-03-22T02:31:52.031Z,177.60
2023-03-22T02:35:52.231Z,177.56
2023-03-22T02:39:52.330Z,178.10
2023-03-22T02:43:52.482Z,178.44
2023-03-22T02:47:52.660Z,177.35
2023-03-22T02:51:52.730Z,176.78
2023-03-22T02:55:52.885Z,177.20
2023-03-22T02:59:52.988Z,177.31
2023-03-22T03:03:53.131Z,175.94
2023-03-22T03:07:53.264Z,173.55
2023-03-22T03:11:53.429Z,172.84
2023-03-22T03:15:53.544Z,174.86
2023-03-22T03:19:53.791Z,173.45
2023-03-22T03:23:53.829Z,173.48
2023-03-22T03:27:53.944Z,173.19
2023-03-22T03:31:54.139Z,174.71
2023-03-22T03:35:54.251Z,170.95
2023-03-22T03:39:54.371Z,174.92
2023-03-22T03:43:54.497Z,174.03
2023-03-22T03:47:54.675Z,173.16
2023-03-22T03:51:54.761Z,174.61
2023-03-22T03:55:54.895Z,173.26
2023-03-22T03:59:55.029Z,172.87
2023-03-22T04:03:55.312Z,171.50
2023-03-22T04:07:55.337Z,170.43
2023-03-22T04:11:55.471Z,170.76
2023-03-22T04:15:55.552Z,172.28
2023-03-22T04:19:55.688Z,171.25
2023-03-22T04:23:55.843Z,169.94
2023-03-22T04:27:56.019Z,170.95
2023-03-22T04:31:56.114Z,172.16
2023-03-22T04:35:56.247Z,171.11
2023-03-22T04:39:56.413Z,169.12
2023-03-22T04:43:56.541Z,170.32
2023-03-22T04:47:56.674Z,170.75
2023-03-22T04:51:56.815Z,169.41
2023-03-22T04:55:56.939Z,168.75
2023-03-22T04:59:57.130Z,171.35
2023-03-22T05:03:57.213Z,168.69
2023-03-22T05:07:57.378Z,169.02
2023-03-22T05:11:57.506Z,169.57
2023-03-22T05:15:57.704Z,168.40
2023-03-22T05:19:57.766Z,169.17
2023-03-22T05:23:57.944Z,168.77
2023-03-22T05:27:58.058Z,169.29
2023-03-22T05:31:58.175Z,170.47
2023-03-22T05:35:58.395Z,169.91
2023-03-22T05:39:58.525Z,167.41
2023-03-22T05:43:58.653Z,167.61
2023-03-22T05:47:58.859Z,167.78
2023-03-22T05:51:58.909Z,169.53
2023-03-22T05:55:59.032Z,165.83
2023-03-22T05:59:59.222Z,166.93
2023-03-22T06:03:59.308Z,166.06
2023-03-22T06:07:59.505Z,167.85
2023-03-22T06:11:59.597Z,166.66
2023-03-22T06:15:59.722Z,166.81
2023-03-22T06:19:59.873Z,166.94
2023-03-22T06:24:00.003Z,165.20
2023-03-22T06:28:00.177Z,165.96
2023-03-22T06:32:00.302Z,166.84
2023-03-22T06:36:00.503Z,166.82
2023-03-22T06:40:00.548Z,169.07
2023-03-22T06:44:01.072Z,174.18
2023-03-22T06:48:01.398Z,190.35
2023-03-22T06:52:00.931Z,204.09
2023-03-22T06:56:01.082Z,219.78
2023-03-22T07:00:01.574Z,161.43
2023-03-22T07:04:01.317Z,166.89
2023-03-22T07:08:01.288Z,157.86
2023-03-22T07:12:01.548Z,138.22
2023-03-22T07:16:01.304Z,138.51
2023-03-22T07:20:01.169Z,172.51
2023-03-22T07:24:01.605Z,202.36
2023-03-22T07:28:01.111Z,223.61
2023-03-22T07:32:01.157Z,249.51
2023-03-22T07:36:01.116Z,250.00
2023-03-22T07:40:00.998Z,249.18
2023-03-22T07:44:15.202Z,249.58
2023-03-22T07:48:02.003Z,149.02
2023-03-22T07:52:01.161Z,124.97
2023-03-22T07:56:01.080Z,179.99
2023-03-22T08:00:01.597Z,181.31
2023-03-22T08:04:01.413Z,181.95
2023-03-22T08:08:01.578Z,178.04
2023-03-22T08:12:01.670Z,174.41
2023-03-22T08:16:02.154Z,171.62
2023-03-22T08:20:01.889Z,172.40
2023-03-22T08:24:01.936Z,196.50
2023-03-22T08:28:02.123Z,199.96
2023-03-22T08:32:02.181Z,208.42
2023-03-22T08:36:02.166Z,219.00
2023-03-22T08:40:02.309Z,228.47
2023-03-22T08:44:02.609Z,245.80
2023-03-22T08:48:02.696Z,161.64
2023-03-22T08:52:02.604Z,102.90
2023-03-22T08:56:02.086Z,142.02
2023-03-22T09:00:02.082Z,153.23
2023-03-22T09:04:02.136Z,168.56
2023-03-22T09:08:06.228Z,185.30
2023-03-22T09:12:01.942Z,198.89
2023-03-22T09:16:01.898Z,220.75
2023-03-22T09:20:11.982Z,233.12
2023-03-22T09:24:03.127Z,122.58
2023-03-22T09:28:02.102Z,85.12
2023-03-22T09:32:01.796Z,117.28
2023-03-22T09:36:01.907Z,130.69
2023-03-22T09:40:02.153Z,157.56
2023-03-22T09:44:02.150Z,172.00
2023-03-22T09:48:02.139Z,188.02
2023-03-22T09:52:02.058Z,97.67
2023-03-22T09:56:01.990Z,109.69
2023-03-22T10:00:01.994Z,146.74
2023-03-22T10:04:01.937Z,163.74
2023-03-22T10:08:02.140Z,192.86
2023-03-22T10:12:01.871Z,203.65
2023-03-22T10:16:01.821Z,208.55
2023-03-22T10:20:02.142Z,216.64
2023-03-22T10:24:01.738Z,223.63
2023-03-22T10:28:01.762Z,227.59
2023-03-22T10:32:01.687Z,233.15
2023-03-22T10:36:01.645Z,236.51
2023-03-22T10:40:01.660Z,243.60
2023-03-22T10:44:01.630Z,247.31
2023-03-22T10:48:02.162Z,249.88
2023-03-22T10:52:01.933Z,242.72
2023-03-22T10:56:02.109Z,234.06
2023-03-22T11:00:02.340Z,227.83
2023-03-22T11:04:02.305Z,223.16
2023-03-22T11:08:02.281Z,215.74
2023-03-22T11:12:02.656Z,209.76
2023-03-22T11:16:02.438Z,201.15
2023-03-22T11:20:02.208Z,191.34
2023-03-22T11:24:02.139Z,187.51
2023-03-22T11:28:02.094Z,183.51
2023-03-22T11:32:02.100Z,183.49
2023-03-22T11:36:02.077Z,174.80
2023-03-22T11:40:02.205Z,178.15
2023-03-22T11:44:02.188Z,175.50
2023-03-22T11:48:01.990Z,176.14
2023-03-22T11:52:04.172Z,176.53
2023-03-22T11:56:01.869Z,176.84
2023-03-22T12:00:01.819Z,176.41
2023-03-22T12:04:01.862Z,176.48
2023-03-22T12:08:01.758Z,175.68
2023-03-22T12:12:01.683Z,176.81
2023-03-22T12:16:01.720Z,175.86
2023-03-22T12:20:01.660Z,178.28
2023-03-22T12:24:01.573Z,176.86
2023-03-22T12:28:01.618Z,177.55
2023-03-22T12:32:02.194Z,177.31
2023-03-22T12:36:02.258Z,180.12
2023-03-22T12:40:02.676Z,182.94
2023-03-22T12:44:02.382Z,183.73
2023-03-22T12:48:02.704Z,184.38
2023-03-22T12:52:02.725Z,186.57
2023-03-22T12:56:02.873Z,186.36
2023-03-22T13:00:03.022Z,187.62
2023-03-22T13:04:03.244Z,189.76
2023-03-22T13:08:03.233Z,190.02
2023-03-22T13:12:03.352Z,191.67
2023-03-22T13:16:03.568Z,191.25
2023-03-22T13:20:03.620Z,191.02
2023-03-22T13:24:03.699Z,190.63
2023-03-22T13:28:03.760Z,191.59
2023-03-22T13:32:03.850Z,192.65
2023-03-22T13:36:05.898Z,193.41
2023-03-22T13:40:03.854Z,195.31
2023-03-22T13:44:05.930Z,194.49
2023-03-22T13:48:03.828Z,194.57
2023-03-22T13:52:03.718Z,193.77
2023-03-22T13:56:03.799Z,194.18
2023-03-22T14:00:11.185Z,193.34
2023-03-22T14:04:04.659Z,194.61
2023-03-22T14:08:03.623Z,196.87
2023-03-22T14:12:03.563Z,194.18
2023-03-22T14:16:03.587Z,195.97
2023-03-22T14:20:03.508Z,195.21
2023-03-22T14:49:03.845Z,25.00
2023-03-22T14:53:03.828Z,26.88
2023-03-22T14:57:03.773Z,28.66
2023-03-22T15:01:03.837Z,32.08
2023-03-22T15:09:03.717Z,29.30
2023-03-22T15:13:11.105Z,34.67
2023-03-22T15:17:03.620Z,31.04
2023-03-22T15:21:03.601Z,33.61
2023-03-22T15:25:03.535Z,30.41
2023-03-22T15:29:03.559Z,28.03
2023-03-22T15:33:03.621Z,27.04
2023-03-22T15:37:03.799Z,31.01
2023-03-22T15:41:03.994Z,30.06
2023-03-22T15:45:03.934Z,27.98
2023-03-22T15:49:03.924Z,29.94
2023-03-22T15:53:03.893Z,30.50
2023-03-22T15:57:03.839Z,31.39
2023-03-22T16:01:03.819Z,31.11
2023-03-22T16:05:03.774Z,32.01
2023-03-22T16:09:04.366Z,28.71
2023-03-22T16:13:03.709Z,29.90
2023-03-22T16:17:03.735Z,29.28
2023-03-22T16:21:03.663Z,27.26
2023-03-22T16:25:03.810Z,26.85
2023-03-22T16:29:03.795Z,29.08
2023-03-22T16:33:03.784Z,29.19
2023-03-22T16:37:03.723Z,27.74
2023-03-22T16:41:03.687Z,25.77
2023-03-22T16:45:11.117Z,27.13
2023-03-22T16:49:03.643Z,28.65
2023-03-22T16:53:03.591Z,26.55
2023-03-22T16:57:03.559Z,26.94
2023-03-22T17:01:03.548Z,29.17
2023-03-22T17:05:10.492Z,30.22
2023-03-22T17:09:03.430Z,30.19
2023-03-22T17:13:03.395Z,25.22
2023-03-22T17:17:03.387Z,28.17
2023-03-22T17:21:03.342Z,26.32
2023-03-22T17:25:03.305Z,25.74
2023-03-22T17:29:03.260Z,27.13
2023-03-22T17:33:04.756Z,25.00
2023-03-22T17:37:03.213Z,26.24
2023-03-22T17:41:03.210Z,25.69
2023-03-22T17:45:03.838Z,26.10
2023-03-22T17:49:03.091Z,28.00
2023-03-22T17:53:06.863Z,26.31
2023-03-22T17:57:36.384Z,27.51
2023-03-22T18:01:04.137Z,27.67
2023-03-22T18:05:02.975Z,25.89
2023-03-22T18:09:02.933Z,25.84
2023-03-22T18:13:11.392Z,25.43
2023-03-22T18:17:02.889Z,27.90
2023-03-22T18:21:03.179Z,25.38
2023-03-22T18:25:02.815Z,28.00
2023-03-22T18:29:02.758Z,26.59
2023-03-22T18:33:06.044Z,25.72
2023-03-22T18:37:02.742Z,27.08
2023-03-22T18:41:31.693Z,26.52
2023-03-22T18:45:04.080Z,26.83
2023-03-22T18:49:11.738Z,29.09
2023-03-22T18:53:17.779Z,24.98
2023-03-22T18:57:03.518Z,26.53
2023-03-22T19:01:10.272Z,26.28
2023-03-22T19:05:02.439Z,28.03
2023-03-22T19:09:02.408Z,28.88
2023-03-22T19:13:02.932Z,30.72
2023-03-22T19:17:02.532Z,31.10
2023-03-22T19:21:11.819Z,31.30
2023-03-22T19:25:02.652Z,32.39
2023-03-22T19:29:02.642Z,28.40
2023-03-22T19:37:03.618Z,29.20
2023-03-22T19:41:38.737Z,29.55
2023-03-22T19:45:03.545Z,29.51
2023-03-22T19:49:02.508Z,26.82
2023-03-22T19:53:29.111Z,25.27
2023-03-22T19:57:03.448Z,24.84
2023-03-22T20:01:02.932Z,29.09
2023-03-22T20:05:11.234Z,25.66
2023-03-22T20:09:03.423Z,26.72
2023-03-22T20:13:02.414Z,26.56
2023-03-22T20:17:06.810Z,26.04
2023-03-22T20:21:03.420Z,28.15
2023-03-22T20:25:02.417Z,28.22
2023-03-22T20:29:02.456Z,25.95
2023-03-22T20:33:02.672Z,28.38
2023-03-22T20:37:02.916Z,27.92
2023-03-22T20:41:03.127Z,28.75
2023-03-22T20:45:03.328Z,27.26
2023-03-22T20:49:03.560Z,29.48
2023-03-22T20:53:03.763Z,29.79
2023-03-22T20:57:03.990Z,29.54
2023-03-22T21:01:04.186Z,28.99
2023-03-22T21:05:04.405Z,28.48
2023-03-22T21:09:04.645Z,32.75
2023-03-22T21:13:04.884Z,28.07
2023-03-22T21:17:05.075Z,25.97
2023-03-22T21:21:05.085Z,29.01
2023-03-22T21:25:05.002Z,31.31
2023-03-22T21:29:04.994Z,29.88
2023-03-22T21:33:04.929Z,28.94
2023-03-22T21:37:04.898Z,25.49
2023-03-22T21:41:04.900Z,29.67
2023-03-22T21:45:12.337Z,29.56
2023-03-22T21:49:04.781Z,29.46
2023-03-22T21:53:04.786Z,30.05
2023-03-22T21:57:04.724Z,25.88
2023-03-22T22:01:11.876Z,28.03
2023-03-22T22:05:04.676Z,26.83
2023-03-22T22:09:04.623Z,27.56
2023-03-22T22:13:04.643Z,28.43
2023-03-22T22:17:04.553Z,28.41
2023-03-22T22:21:04.517Z,27.48
2023-03-22T22:25:04.544Z,28.29
2023-03-22T22:29:04.738Z,27.75
2023-03-22T22:33:04.694Z,26.99
2023-03-22T22:37:04.689Z,27.93
2023-03-22T22:41:04.687Z,26.60
2023-03-22T22:45:04.598Z,26.90
2023-03-22T22:49:04.609Z,28.29
2023-03-22T22:53:04.565Z,28.15
2023-03-22T22:57:04.488Z,28.97
2023-03-22T23:01:04.487Z,26.30
2023-03-22T23:05:04.462Z,27.68
2023-03-22T23:09:04.432Z,30.70
2023-03-22T23:13:04.431Z,27.25
2023-03-22T23:17:13.897Z,25.90
2023-03-22T23:21:04.504Z,28.45
2023-03-22T23:25:04.477Z,25.44
2023-03-22T23:29:04.440Z,30.78
2023-03-22T23:33:12.825Z,29.19
2023-03-22T23:37:04.325Z,31.44
2023-03-22T23:41:04.341Z,31.38
2023-03-22T23:45:04.301Z,27.98
2023-03-22T23:49:04.297Z,28.39
2023-03-22T23:53:04.211Z,29.53
2023-03-22T23:57:04.164Z,28.85
